createdAt,value
2018-06-18T00:01:15.569Z,11.90
2018-06-18T00:03:46.038Z,12.00
2018-06-18T00:06:16.005Z,12.00
2018-06-18T00:08:46.292Z,12.00
2018-06-18T00:11:16.495Z,12.00
2018-06-18T00:13:46.553Z,12.00
2018-06-18T00:16:17.022Z,12.00
2018-06-18T00:18:47.237Z,12.00
2018-06-18T00:21:17.525Z,12.00
2018-06-18T00:23:47.749Z,12.00
2018-06-18T00:26:17.768Z,12.00
2018-06-18T00:28:47.784Z,12.00
2018-06-18T00:31:17.803Z,12.00
2018-06-18T00:33:48.611Z,12.00
2018-06-18T00:36:18.865Z,12.10
2018-06-18T00:38:48.938Z,12.00
2018-06-18T00:41:19.019Z,12.00
2018-06-18T00:43:50.199Z,12.00
2018-06-18T00:46:20.751Z,12.00
2018-06-18T00:48:50.707Z,12.00
2018-06-18T00:51:20.766Z,12.00
2018-06-18T00:53:51.019Z,12.00
2018-06-18T00:56:21.049Z,12.00
2018-06-18T00:58:51.871Z,12.00
2018-06-18T01:01:22.088Z,11.90
2018-06-18T01:03:52.122Z,11.90
2018-06-18T01:06:22.145Z,11.90
2018-06-18T01:08:52.641Z,11.90
2018-06-18T01:11:22.910Z,11.90
2018-06-18T01:13:53.235Z,11.80
2018-06-18T01:16:23.403Z,11.80
2018-06-18T01:18:53.472Z,11.80
2018-06-18T01:21:23.687Z,11.80
2018-06-18T01:24:05.296Z,11.70
2018-06-18T01:26:35.416Z,11.70
2018-06-18T01:29:05.766Z,11.70
2018-06-18T01:31:35.779Z,11.70
2018-06-18T01:34:13.238Z,11.70
2018-06-18T01:36:43.610Z,11.70
2018-06-18T01:39:13.895Z,11.70
2018-06-18T01:41:44.111Z,11.70
2018-06-18T01:44:14.222Z,11.70
2018-06-18T01:46:44.659Z,11.60
2018-06-18T01:49:14.724Z,11.60
2018-06-18T01:51:45.232Z,11.60
2018-06-18T01:54:15.669Z,11.60
2018-06-18T01:56:45.855Z,11.60
2018-06-18T01:59:16.064Z,11.50
2018-06-18T02:01:46.281Z,11.50
2018-06-18T02:04:16.345Z,11.50
2018-06-18T02:06:46.650Z,11.50
2018-06-18T02:09:16.650Z,11.40
2018-06-18T02:11:46.845Z,11.40
2018-06-18T02:14:17.106Z,11.40
2018-06-18T02:16:47.223Z,11.40
2018-06-18T02:19:17.438Z,11.40
2018-06-18T02:21:47.546Z,11.50
2018-06-18T02:24:17.800Z,11.50
2018-06-18T02:26:47.902Z,11.50
2018-06-18T02:29:23.165Z,11.50
2018-06-18T02:31:58.753Z,11.50
2018-06-18T02:34:34.376Z,11.60
2018-06-18T02:37:09.974Z,11.60
2018-06-18T02:39:45.382Z,11.60
2018-06-18T02:42:15.599Z,11.70
2018-06-18T02:44:45.763Z,11.70
2018-06-18T02:47:15.761Z,11.70
2018-06-18T02:49:46.230Z,11.70
2018-06-18T02:52:16.751Z,11.60
2018-06-18T02:54:46.734Z,11.60
2018-06-18T02:57:17.796Z,11.60
2018-06-18T02:59:48.018Z,11.50
2018-06-18T03:02:18.195Z,11.50
2018-06-18T03:04:48.434Z,11.50
2018-06-18T03:07:18.495Z,11.40
2018-06-18T03:09:48.628Z,11.50
2018-06-18T03:12:18.615Z,11.40
2018-06-18T03:14:48.854Z,11.40
2018-06-18T03:17:19.358Z,11.40
2018-06-18T03:19:54.670Z,11.40
2018-06-18T03:22:29.817Z,11.30
2018-06-18T03:25:04.992Z,11.30
2018-06-18T03:27:40.150Z,11.30
2018-06-18T03:30:10.175Z,11.20
2018-06-18T03:32:41.146Z,11.20
2018-06-18T03:35:11.235Z,11.20
2018-06-18T03:37:41.241Z,11.20
2018-06-18T03:40:11.896Z,11.10
2018-06-18T03:42:42.615Z,11.20
2018-06-18T03:45:18.400Z,11.10
2018-06-18T03:47:48.478Z,11.20
2018-06-18T03:50:18.871Z,11.20
2018-06-18T03:52:48.957Z,11.10
2018-06-18T03:55:30.143Z,11.20
2018-06-18T03:58:04.707Z,11.20
2018-06-18T04:00:45.029Z,11.30
2018-06-18T04:03:20.768Z,11.30
2018-06-18T04:05:55.987Z,11.30
2018-06-18T04:08:26.294Z,11.40
2018-06-18T04:11:01.694Z,11.50
2018-06-18T04:13:31.711Z,11.60
2018-06-18T04:16:01.799Z,11.70
2018-06-18T04:18:32.103Z,11.70
2018-06-18T04:21:02.211Z,11.80
2018-06-18T04:23:32.637Z,11.90
2018-06-18T04:26:03.139Z,12.00
2018-06-18T04:28:33.118Z,12.10
2018-06-18T04:31:03.187Z,12.20
2018-06-18T04:33:33.382Z,12.30
2018-06-18T04:36:03.892Z,12.40
2018-06-18T04:38:34.372Z,12.50
2018-06-18T04:41:04.661Z,12.50
2018-06-18T04:43:39.798Z,12.60
2018-06-18T04:46:15.072Z,12.70
2018-06-18T04:48:50.211Z,12.80
2018-06-18T04:51:20.351Z,12.80
2018-06-18T04:53:50.850Z,12.90
2018-06-18T04:56:21.601Z,13.00
2018-06-18T04:58:51.778Z,13.10
2018-06-18T05:01:28.589Z,13.20
2018-06-18T05:03:58.751Z,13.20
2018-06-18T05:06:30.219Z,13.20
2018-06-18T05:09:43.698Z,13.40
2018-06-18T05:12:13.737Z,13.40
2018-06-18T05:14:43.754Z,13.50
2018-06-18T05:17:14.146Z,13.60
2018-06-18T05:19:44.211Z,13.70
2018-06-18T05:22:14.241Z,13.70
2018-06-18T05:24:44.246Z,13.80
2018-06-18T05:27:15.143Z,13.70
2018-06-18T05:29:45.535Z,13.70
2018-06-18T05:32:15.577Z,13.80
2018-06-18T05:34:46.086Z,13.80
2018-06-18T05:37:20.874Z,13.80
2018-06-18T05:39:50.848Z,13.90
2018-06-18T05:42:21.023Z,14.00
2018-06-18T05:44:51.190Z,14.00
2018-06-18T05:47:21.436Z,14.10
2018-06-18T05:49:51.654Z,14.20
2018-06-18T05:52:21.729Z,14.50
2018-06-18T05:54:51.986Z,14.60
2018-06-18T05:57:22.665Z,14.50
2018-06-18T05:59:52.689Z,14.50
2018-06-18T06:02:22.639Z,14.40
2018-06-18T06:04:52.841Z,14.60
2018-06-18T06:07:23.017Z,14.70
2018-06-18T06:09:53.540Z,14.80
2018-06-18T06:12:23.661Z,14.90
2018-06-18T06:14:53.570Z,15.10
2018-06-18T06:17:23.839Z,15.00
2018-06-18T06:19:53.961Z,15.00
2018-06-18T06:22:24.124Z,15.10
2018-06-18T06:24:54.393Z,15.20
2018-06-18T06:27:24.793Z,14.90
2018-06-18T06:29:55.955Z,14.90
2018-06-18T06:32:25.966Z,14.70
2018-06-18T06:35:01.439Z,14.60
2018-06-18T06:37:31.730Z,14.50
2018-06-18T06:40:01.922Z,14.50
2018-06-18T06:42:31.875Z,14.40
2018-06-18T06:45:01.885Z,14.50
2018-06-18T06:47:32.071Z,14.60
2018-06-18T06:50:02.156Z,14.80
2018-06-18T06:52:32.264Z,14.90
2018-06-18T06:55:02.834Z,14.90
2018-06-18T06:57:32.995Z,15.40
2018-06-18T07:00:03.908Z,15.50
2018-06-18T07:02:35.693Z,15.40
2018-06-18T07:05:05.871Z,15.50
2018-06-18T07:07:35.869Z,15.70
2018-06-18T07:10:07.210Z,15.90
2018-06-18T07:12:37.871Z,15.90
2018-06-18T07:15:09.329Z,15.90
2018-06-18T07:17:41.074Z,15.90
2018-06-18T07:20:12.335Z,16.10
2018-06-18T07:22:43.966Z,16.20
2018-06-18T07:25:14.734Z,16.40
2018-06-18T07:27:45.398Z,16.70
2018-06-18T07:30:15.956Z,16.90
2018-06-18T07:32:46.538Z,17.20
2018-06-18T07:35:17.028Z,17.60
2018-06-18T07:37:47.910Z,17.70
2018-06-18T07:40:18.419Z,17.50
2018-06-18T07:42:49.147Z,17.20
2018-06-18T07:45:19.996Z,16.70
2018-06-18T07:47:50.537Z,16.90
2018-06-18T07:50:21.061Z,17.30
2018-06-18T07:52:52.131Z,18.10
2018-06-18T07:55:22.632Z,18.30
2018-06-18T07:57:53.350Z,18.30
2018-06-18T08:00:23.839Z,18.10
2018-06-18T08:02:54.546Z,18.10
2018-06-18T08:05:26.215Z,18.30
2018-06-18T08:07:58.533Z,18.20
2018-06-18T08:10:30.250Z,18.50
2018-06-18T08:13:00.980Z,18.40
2018-06-18T08:15:31.507Z,18.10
2018-06-18T08:18:01.983Z,17.80
2018-06-18T08:20:32.487Z,18.00
2018-06-18T08:23:02.979Z,18.30
2018-06-18T08:25:33.435Z,17.80
2018-06-18T08:28:04.964Z,18.20
2018-06-18T08:30:35.558Z,18.30
2018-06-18T08:33:06.342Z,18.30
2018-06-18T08:35:37.297Z,18.50
2018-06-18T08:38:07.865Z,18.90
2018-06-18T08:40:38.973Z,19.40
2018-06-18T08:43:10.023Z,19.00
2018-06-18T08:45:41.106Z,18.50
2018-06-18T08:48:16.178Z,18.00
2018-06-18T08:50:51.897Z,17.70
2018-06-18T08:53:27.811Z,17.50
2018-06-18T08:56:04.037Z,17.50
2018-06-18T08:58:39.549Z,18.00
2018-06-18T09:01:14.408Z,18.10
2018-06-18T09:03:50.092Z,17.90
2018-06-18T09:06:20.715Z,18.40
2018-06-18T09:08:55.339Z,18.50
2018-06-18T09:11:26.223Z,18.40
2018-06-18T09:13:56.705Z,18.50
2018-06-18T09:16:27.195Z,18.90
2018-06-18T09:18:57.855Z,19.10
2018-06-18T09:21:28.368Z,19.10
2018-06-18T09:23:58.958Z,19.20
2018-06-18T09:26:29.559Z,19.40
2018-06-18T09:29:00.299Z,19.70
2018-06-18T09:31:30.773Z,19.80
2018-06-18T09:34:01.271Z,19.80
2018-06-18T09:36:31.849Z,19.50
2018-06-18T09:39:02.374Z,20.10
2018-06-18T09:41:33.083Z,19.70
2018-06-18T09:44:03.661Z,19.30
2018-06-18T09:46:34.187Z,18.90
2018-06-18T09:49:10.414Z,19.10
2018-06-18T09:51:46.104Z,19.40
2018-06-18T09:54:22.114Z,19.80
2018-06-18T09:56:57.918Z,19.90
2018-06-18T09:59:43.337Z,19.70
2018-06-18T10:02:13.932Z,20.20
2018-06-18T10:04:44.714Z,20.40
2018-06-18T10:07:15.230Z,20.50
2018-06-18T10:09:45.939Z,20.60
2018-06-18T10:12:17.033Z,21.20
2018-06-18T10:14:47.876Z,21.60
2018-06-18T10:17:20.082Z,21.70
2018-06-18T10:19:52.793Z,21.70
2018-06-18T10:22:24.253Z,22.20
2018-06-18T10:24:54.912Z,22.30
2018-06-18T10:27:26.359Z,22.00
2018-06-18T10:29:57.126Z,22.00
2018-06-18T10:32:32.811Z,22.20
2018-06-18T10:35:08.678Z,22.10
2018-06-18T10:37:45.503Z,21.90
2018-06-18T10:40:21.217Z,21.90
2018-06-18T10:42:57.552Z,21.60
2018-06-18T10:45:28.067Z,21.60
2018-06-18T10:47:58.741Z,21.70
2018-06-18T10:50:29.257Z,22.00
2018-06-18T10:53:00.126Z,22.30
2018-06-18T10:55:30.784Z,22.40
2018-06-18T10:58:01.353Z,22.60
2018-06-18T11:00:32.244Z,22.60
2018-06-18T11:03:02.781Z,22.80
2018-06-18T11:05:39.289Z,23.10
2018-06-18T11:08:11.252Z,23.40
2018-06-18T11:10:41.967Z,23.60
2018-06-18T11:13:12.712Z,23.70
2018-06-18T11:15:43.792Z,23.70
2018-06-18T11:18:20.415Z,24.20
2018-06-18T11:20:57.119Z,24.50
2018-06-18T11:23:32.790Z,24.70
2018-06-18T11:26:08.816Z,24.80
2018-06-18T11:28:39.557Z,24.90
2018-06-18T11:31:10.871Z,24.70
2018-06-18T11:33:42.734Z,24.40
2018-06-18T11:36:13.220Z,24.30
2018-06-18T11:38:43.707Z,24.10
2018-06-18T11:41:14.506Z,24.30
2018-06-18T11:43:45.040Z,24.10
2018-06-18T11:46:15.666Z,24.10
2018-06-18T11:48:45.885Z,24.30
2018-06-18T11:51:16.935Z,23.90
2018-06-18T11:53:47.147Z,24.00
2018-06-18T11:56:17.834Z,24.30
2018-06-18T11:58:53.413Z,24.10
2018-06-18T12:01:28.939Z,23.60
2018-06-18T12:04:04.608Z,23.50
2018-06-18T12:06:41.835Z,23.90
2018-06-18T12:09:17.497Z,24.30
2018-06-18T12:11:48.402Z,24.00
2018-06-18T12:14:18.806Z,23.50
2018-06-18T12:16:49.168Z,23.60
2018-06-18T12:19:20.059Z,23.20
2018-06-18T12:21:50.742Z,22.90
2018-06-18T12:24:21.946Z,22.60
2018-06-18T12:26:56.295Z,22.30
2018-06-18T12:29:27.212Z,22.30
2018-06-18T12:31:58.810Z,22.10
2018-06-18T12:34:29.318Z,21.80
2018-06-18T12:37:00.068Z,21.50
2018-06-18T12:39:31.536Z,21.60
2018-06-18T12:42:05.304Z,21.30
2018-06-18T12:44:44.699Z,21.30
2018-06-18T12:47:21.076Z,21.20
2018-06-18T12:52:04.464Z,20.90
2018-06-18T12:54:40.809Z,20.90
2018-06-18T12:57:12.003Z,21.30
2018-06-18T12:59:43.340Z,21.50
2018-06-18T13:02:34.440Z,21.60
2018-06-18T13:05:05.845Z,21.60
2018-06-18T13:07:36.756Z,21.40
2018-06-18T13:10:07.688Z,21.40
2018-06-18T13:12:38.448Z,21.40
2018-06-18T13:15:09.789Z,21.30
2018-06-18T13:17:40.893Z,21.00
2018-06-18T13:20:11.704Z,21.20
2018-06-18T13:22:42.610Z,21.30
2018-06-18T13:25:13.238Z,21.30
2018-06-18T13:27:49.756Z,21.30
2018-06-18T13:30:20.726Z,21.20
2018-06-18T13:32:51.276Z,21.10
2018-06-18T13:35:22.067Z,21.10
2018-06-18T13:37:58.324Z,21.30
2018-06-18T13:40:33.956Z,21.30
2018-06-18T13:43:09.741Z,21.20
2018-06-18T13:45:42.954Z,21.20
2018-06-18T13:48:24.770Z,21.30
2018-06-18T13:50:55.888Z,21.20
2018-06-18T13:53:26.835Z,21.40
2018-06-18T13:55:57.544Z,21.30
2018-06-18T13:58:28.155Z,21.20
2018-06-18T14:00:58.810Z,21.20
2018-06-18T14:03:29.542Z,21.20
2018-06-18T14:06:00.041Z,21.20
2018-06-18T14:08:30.550Z,21.20
2018-06-18T14:11:01.027Z,21.20
2018-06-18T14:13:31.520Z,21.20
2018-06-18T14:16:02.007Z,21.20
2018-06-18T14:18:33.071Z,21.20
2018-06-18T14:21:03.643Z,21.30
2018-06-18T14:23:34.129Z,21.20
2018-06-18T14:26:05.142Z,21.20
2018-06-18T14:28:35.662Z,21.20
2018-06-18T14:31:11.538Z,21.30
2018-06-18T14:33:47.090Z,21.30
2018-06-18T14:36:22.980Z,21.30
2018-06-18T14:38:58.979Z,21.40
2018-06-18T14:41:29.482Z,21.40
2018-06-18T14:44:00.066Z,21.40
2018-06-18T14:46:31.240Z,21.40
2018-06-18T14:49:02.671Z,21.30
2018-06-18T14:51:33.423Z,21.20
2018-06-18T14:54:03.911Z,21.20
2018-06-18T14:56:36.947Z,21.40
2018-06-18T14:59:14.519Z,21.30
2018-06-18T15:01:45.431Z,21.20
2018-06-18T15:04:17.297Z,21.10
2018-06-18T15:06:48.040Z,21.10
2018-06-18T15:09:18.614Z,21.30
2018-06-18T15:11:49.279Z,21.40
2018-06-18T15:14:19.844Z,21.40
2018-06-18T15:16:50.715Z,21.40
2018-06-18T15:19:21.296Z,21.40
2018-06-18T15:21:55.957Z,21.50
2018-06-18T15:24:44.676Z,21.40
2018-06-18T15:27:15.198Z,21.30
2018-06-18T15:29:45.900Z,21.50
2018-06-18T15:32:17.125Z,21.50
2018-06-18T15:34:47.755Z,21.50
2018-06-18T15:37:18.243Z,21.50
2018-06-18T15:39:48.763Z,21.60
2018-06-18T15:42:20.278Z,21.70
2018-06-18T15:44:51.517Z,21.80
2018-06-18T15:47:22.015Z,22.00
2018-06-18T15:49:52.616Z,22.10
2018-06-18T15:52:23.419Z,22.40
2018-06-18T15:54:54.122Z,22.30
2018-06-18T15:57:24.853Z,22.30
2018-06-18T15:59:55.619Z,22.50
2018-06-18T16:02:26.411Z,22.60
2018-06-18T16:04:57.134Z,22.60
2018-06-18T16:07:27.619Z,22.80
2018-06-18T16:09:58.390Z,22.70
2018-06-18T16:12:29.156Z,22.50
2018-06-18T16:14:59.936Z,22.20
2018-06-18T16:17:30.729Z,22.10
2018-06-18T16:20:01.318Z,22.10
2018-06-18T16:22:31.780Z,22.20
2018-06-18T16:25:02.868Z,22.20
2018-06-18T16:27:33.580Z,22.30
2018-06-18T16:30:04.576Z,22.60
2018-06-18T16:32:35.176Z,22.90
2018-06-18T16:35:05.734Z,23.10
2018-06-18T16:37:36.222Z,23.10
2018-06-18T16:40:07.382Z,23.10
2018-06-18T16:42:37.977Z,23.10
2018-06-18T16:45:09.170Z,23.10
2018-06-18T16:47:40.023Z,22.90
2018-06-18T16:50:11.390Z,22.50
2018-06-18T16:52:41.975Z,22.10
2018-06-18T16:55:12.892Z,21.90
2018-06-18T16:57:43.655Z,21.80
2018-06-18T17:00:14.449Z,21.70
2018-06-18T17:02:45.096Z,21.60
2018-06-18T17:05:15.833Z,21.50
2018-06-18T17:07:48.153Z,21.30
2018-06-18T17:10:19.018Z,21.10
2018-06-18T17:12:50.507Z,20.90
2018-06-18T17:15:21.351Z,21.00
2018-06-18T17:17:52.662Z,21.30
2018-06-18T17:20:23.590Z,21.50
2018-06-18T17:22:54.146Z,21.70
2018-06-18T17:25:24.803Z,21.70
2018-06-18T17:27:55.497Z,21.80
2018-06-18T17:30:26.037Z,21.60
2018-06-18T17:32:56.884Z,21.30
2018-06-18T17:35:28.509Z,20.60
2018-06-18T17:37:59.233Z,19.90
2018-06-18T17:40:30.344Z,19.40
2018-06-18T17:43:00.963Z,19.00
2018-06-18T17:45:31.626Z,18.60
2018-06-18T17:48:02.557Z,18.30
2018-06-18T17:50:33.282Z,18.20
2018-06-18T17:53:03.896Z,18.40
2018-06-18T17:55:35.102Z,18.80
2018-06-18T17:58:05.982Z,19.00
2018-06-18T18:00:37.569Z,19.20
2018-06-18T18:03:08.286Z,19.30
2018-06-18T18:05:39.365Z,19.00
2018-06-18T18:08:09.914Z,18.70
2018-06-18T18:10:40.831Z,18.30
2018-06-18T18:13:11.611Z,17.90
2018-06-18T18:15:42.975Z,17.70
2018-06-18T18:18:14.046Z,17.40
2018-06-18T18:20:47.229Z,17.20
2018-06-18T18:23:18.203Z,17.00
2018-06-18T18:25:48.967Z,16.90
2018-06-18T18:28:20.933Z,16.80
2018-06-18T18:30:52.681Z,16.60
2018-06-18T18:33:23.646Z,16.50
2018-06-18T18:35:54.577Z,16.40
2018-06-18T18:38:24.894Z,16.30
2018-06-18T18:40:55.941Z,16.20
2018-06-18T18:43:26.210Z,16.10
2018-06-18T18:45:57.814Z,16.10
2018-06-18T18:48:29.728Z,16.00
2018-06-18T18:51:01.166Z,16.00
2018-06-18T18:53:32.382Z,15.90
2018-06-18T18:56:19.347Z,15.80
2018-06-18T18:59:29.171Z,15.70
2018-06-18T19:01:59.671Z,15.60
2018-06-18T19:04:38.978Z,15.50
2018-06-18T19:07:09.252Z,15.40
2018-06-18T19:09:49.005Z,15.30
2018-06-18T19:12:20.300Z,15.20
2018-06-18T19:14:51.022Z,15.10
2018-06-18T19:17:22.333Z,15.00
2018-06-18T19:20:13.476Z,14.90
2018-06-18T19:22:43.572Z,14.80
2018-06-18T19:25:13.846Z,14.70
2018-06-18T19:27:44.083Z,14.60
2018-06-18T19:30:14.270Z,14.60
2018-06-18T19:32:44.803Z,14.50
2018-06-18T19:35:16.170Z,14.30
2018-06-18T19:37:46.380Z,14.20
2018-06-18T19:40:18.040Z,14.20
2018-06-18T19:42:48.880Z,14.10
2018-06-18T19:45:22.832Z,14.00
2018-06-18T19:48:01.440Z,14.00
2018-06-18T19:50:31.948Z,13.80
2018-06-18T19:53:02.584Z,13.80
2018-06-18T19:55:34.827Z,13.70
2018-06-18T19:58:05.206Z,13.60
2018-06-18T20:00:50.236Z,13.60
2018-06-18T20:03:22.127Z,13.50
2018-06-18T20:05:54.302Z,13.40
2018-06-18T20:08:29.313Z,13.40
2018-06-18T20:11:00.560Z,13.40
2018-06-18T20:13:32.800Z,13.50
2018-06-18T20:16:03.324Z,13.60
2018-06-18T20:18:33.646Z,13.60
2018-06-18T20:21:04.056Z,13.60
2018-06-18T20:23:34.517Z,13.60
2018-06-18T20:26:09.967Z,13.60
2018-06-18T20:28:40.561Z,13.60
2018-06-18T20:31:10.829Z,13.60
2018-06-18T20:33:45.431Z,13.50
2018-06-18T20:36:17.970Z,13.40
2018-06-18T20:38:48.261Z,13.40
2018-06-18T20:41:18.614Z,13.30
2018-06-18T20:44:10.405Z,13.20
2018-06-18T20:46:40.830Z,13.20
2018-06-18T20:49:13.240Z,13.10
2018-06-18T20:51:43.799Z,13.00
2018-06-18T20:54:14.708Z,12.90
2018-06-18T20:56:45.126Z,12.80
2018-06-18T20:59:15.761Z,12.70
2018-06-18T21:01:46.199Z,12.60
2018-06-18T21:04:16.710Z,12.50
2018-06-18T21:06:47.136Z,12.50
2018-06-18T21:09:17.860Z,12.40
2018-06-18T21:11:48.300Z,12.30
2018-06-18T21:14:18.685Z,12.30
2018-06-18T21:16:49.533Z,12.20
2018-06-18T21:19:20.118Z,12.20
2018-06-18T21:21:50.404Z,12.10
2018-06-18T21:24:20.799Z,12.10
2018-06-18T21:26:51.160Z,12.00
2018-06-18T21:29:21.765Z,12.00
2018-06-18T21:31:52.505Z,12.00
2018-06-18T21:34:22.842Z,11.90
2018-06-18T21:36:53.477Z,11.90
2018-06-18T21:39:23.763Z,12.00
2018-06-18T21:41:53.932Z,12.00
2018-06-18T21:44:31.768Z,12.00
2018-06-18T21:47:02.347Z,11.90
2018-06-18T21:49:32.620Z,11.90
2018-06-18T21:52:03.074Z,11.90
2018-06-18T21:54:33.307Z,11.80
2018-06-18T21:57:03.691Z,11.80
2018-06-18T21:59:33.709Z,11.80
2018-06-18T22:02:04.323Z,11.70
2018-06-18T22:04:34.837Z,11.70
2018-06-18T22:07:05.462Z,11.60
2018-06-18T22:09:35.886Z,11.60
2018-06-18T22:12:06.012Z,11.60
2018-06-18T22:14:37.299Z,11.60
2018-06-18T22:17:08.465Z,11.50
2018-06-18T22:19:39.304Z,11.50
2018-06-18T22:22:09.909Z,11.50
2018-06-18T22:24:40.409Z,11.40
2018-06-18T22:27:10.733Z,11.50
2018-06-18T22:29:41.236Z,11.50
2018-06-18T22:32:12.035Z,11.60
2018-06-18T22:34:42.362Z,11.60
2018-06-18T22:37:13.081Z,11.60
2018-06-18T22:39:43.607Z,11.60
2018-06-18T22:42:14.469Z,11.60
2018-06-18T22:44:45.211Z,11.50
2018-06-18T22:47:15.680Z,11.50
2018-06-18T22:49:46.117Z,11.40
2018-06-18T22:52:17.378Z,11.40
2018-06-18T22:54:50.840Z,11.40
2018-06-18T22:57:21.272Z,11.40
2018-06-18T22:59:51.735Z,11.40
2018-06-18T23:02:26.552Z,11.40
2018-06-18T23:04:57.087Z,11.40
2018-06-18T23:07:27.224Z,11.50
2018-06-18T23:09:57.512Z,11.50
2018-06-18T23:12:33.448Z,11.50
2018-06-18T23:15:04.337Z,11.60
2018-06-18T23:17:34.477Z,11.50
2018-06-18T23:20:04.901Z,11.60
2018-06-18T23:22:34.956Z,11.60
2018-06-18T23:25:05.175Z,11.60
2018-06-18T23:27:35.908Z,11.60
2018-06-18T23:30:06.558Z,11.70
2018-06-18T23:32:36.971Z,11.80
2018-06-18T23:35:07.093Z,11.80
2018-06-18T23:37:37.463Z,11.80
2018-06-18T23:40:07.893Z,11.80
2018-06-18T23:42:38.294Z,11.80
2018-06-18T23:45:08.699Z,11.80
2018-06-18T23:47:39.256Z,11.90
2018-06-18T23:50:09.777Z,11.90
2018-06-18T23:52:40.179Z,12.00
2018-06-18T23:55:10.331Z,12.10
2018-06-18T23:57:41.477Z,12.10
